sensor_id;sensor_type;location;lat;lon;timestamp;P1;durP1;ratioP1;P2;durP2;ratioP2
61685;SDS011;47592;45.904;8.978;2023-05-10T00:00:34;8.30;;;5.65;;
61685;SDS011;47592;45.904;8.978;2023-05-10T00:03:12;8.93;;;5.50;;
61685;SDS011;47592;45.904;8.978;2023-05-10T00:05:43;9.20;;;5.93;;
61685;SDS011;47592;45.904;8.978;2023-05-10T00:08:11;8.95;;;5.93;;
61685;SDS011;47592;45.904;8.978;2023-05-10T00:10:39;7.68;;;5.18;;
61685;SDS011;47592;45.904;8.978;2023-05-10T00:13:11;8.75;;;5.28;;
61685;SDS011;47592;45.904;8.978;2023-05-10T00:15:37;7.25;;;4.80;;
61685;SDS011;47592;45.904;8.978;2023-05-10T00:18:04;8.15;;;5.43;;
61685;SDS011;47592;45.904;8.978;2023-05-10T00:20:36;9.10;;;6.28;;
61685;SDS011;47592;45.904;8.978;2023-05-10T00:23:05;8.52;;;5.78;;
61685;SDS011;47592;45.904;8.978;2023-05-10T00:25:35;8.52;;;5.63;;
61685;SDS011;47592;45.904;8.978;2023-05-10T00:28:03;8.18;;;5.60;;
61685;SDS011;47592;45.904;8.978;2023-05-10T00:30:32;8.75;;;5.75;;
61685;SDS011;47592;45.904;8.978;2023-05-10T00:33:07;8.13;;;5.47;;
61685;SDS011;47592;45.904;8.978;2023-05-10T00:35:36;7.95;;;5.65;;
61685;SDS011;47592;45.904;8.978;2023-05-10T00:38:03;8.93;;;5.28;;
61685;SDS011;47592;45.904;8.978;2023-05-10T00:40:30;8.93;;;5.10;;
61685;SDS011;47592;45.904;8.978;2023-05-10T00:42:56;8.38;;;5.65;;
61685;SDS011;47592;45.904;8.978;2023-05-10T00:45:26;7.53;;;4.85;;
61685;SDS011;47592;45.904;8.978;2023-05-10T00:47:55;8.30;;;5.55;;
61685;SDS011;47592;45.904;8.978;2023-05-10T00:50:30;8.48;;;5.45;;
61685;SDS011;47592;45.904;8.978;2023-05-10T00:52:56;9.75;;;5.40;;
61685;SDS011;47592;45.904;8.978;2023-05-10T00:55:23;7.80;;;5.07;;
61685;SDS011;47592;45.904;8.978;2023-05-10T00:57:49;9.60;;;5.70;;
61685;SDS011;47592;45.904;8.978;2023-05-10T01:00:20;8.50;;;4.93;;
61685;SDS011;47592;45.904;8.978;2023-05-10T01:02:54;9.20;;;5.15;;
61685;SDS011;47592;45.904;8.978;2023-05-10T01:05:25;8.90;;;4.90;;
61685;SDS011;47592;45.904;8.978;2023-05-10T01:07:52;7.82;;;4.82;;
61685;SDS011;47592;45.904;8.978;2023-05-10T01:10:18;6.88;;;4.45;;
61685;SDS011;47592;45.904;8.978;2023-05-10T01:12:46;7.13;;;4.22;;
61685;SDS011;47592;45.904;8.978;2023-05-10T01:15:17;6.93;;;3.85;;
61685;SDS011;47592;45.904;8.978;2023-05-10T01:17:46;7.38;;;4.25;;
61685;SDS011;47592;45.904;8.978;2023-05-10T01:20:20;6.40;;;3.90;;
61685;SDS011;47592;45.904;8.978;2023-05-10T01:23:09;6.65;;;4.00;;
61685;SDS011;47592;45.904;8.978;2023-05-10T01:25:53;6.60;;;3.92;;
61685;SDS011;47592;45.904;8.978;2023-05-10T01:34:02;6.40;;;3.70;;
61685;SDS011;47592;45.904;8.978;2023-05-10T01:36:48;6.95;;;4.32;;
61685;SDS011;47592;45.904;8.978;2023-05-10T01:40:19;6.38;;;3.95;;
61685;SDS011;47592;45.904;8.978;2023-05-10T01:42:29;7.07;;;3.90;;
61685;SDS011;47592;45.904;8.978;2023-05-10T01:45:16;5.95;;;3.60;;
61685;SDS011;47592;45.904;8.978;2023-05-10T01:48:03;7.18;;;3.75;;
61685;SDS011;47592;45.904;8.978;2023-05-10T01:50:39;6.10;;;3.78;;
61685;SDS011;47592;45.904;8.978;2023-05-10T01:53:08;6.00;;;3.53;;
61685;SDS011;47592;45.904;8.978;2023-05-10T01:55:42;5.18;;;3.33;;
61685;SDS011;47592;45.904;8.978;2023-05-10T01:58:15;6.53;;;3.92;;
61685;SDS011;47592;45.904;8.978;2023-05-10T02:00:44;6.70;;;3.53;;
61685;SDS011;47592;45.904;8.978;2023-05-10T02:03:16;7.05;;;3.70;;
61685;SDS011;47592;45.904;8.978;2023-05-10T02:05:46;7.97;;;4.10;;
61685;SDS011;47592;45.904;8.978;2023-05-10T02:08:16;6.15;;;3.35;;
61685;SDS011;47592;45.904;8.978;2023-05-10T02:10:45;5.43;;;3.22;;
61685;SDS011;47592;45.904;8.978;2023-05-10T02:13:15;5.90;;;3.50;;
61685;SDS011;47592;45.904;8.978;2023-05-10T02:15:50;5.85;;;3.20;;
61685;SDS011;47592;45.904;8.978;2023-05-10T02:18:21;6.00;;;3.40;;
61685;SDS011;47592;45.904;8.978;2023-05-10T02:20:52;5.32;;;3.33;;
61685;SDS011;47592;45.904;8.978;2023-05-10T02:23:21;5.03;;;3.00;;
61685;SDS011;47592;45.904;8.978;2023-05-10T02:28:24;6.20;;;2.47;;
61685;SDS011;47592;45.904;8.978;2023-05-10T02:30:58;6.43;;;2.92;;
61685;SDS011;47592;45.904;8.978;2023-05-10T02:33:24;6.40;;;3.00;;
61685;SDS011;47592;45.904;8.978;2023-05-10T02:35:53;5.40;;;2.92;;
61685;SDS011;47592;45.904;8.978;2023-05-10T02:38:20;5.13;;;2.85;;
61685;SDS011;47592;45.904;8.978;2023-05-10T02:40:50;6.28;;;3.15;;
61685;SDS011;47592;45.904;8.978;2023-05-10T02:43:21;5.78;;;3.22;;
61685;SDS011;47592;45.904;8.978;2023-05-10T02:45:48;5.22;;;2.80;;
61685;SDS011;47592;45.904;8.978;2023-05-10T02:48:13;5.18;;;2.97;;
61685;SDS011;47592;45.904;8.978;2023-05-10T02:50:43;5.55;;;2.97;;
61685;SDS011;47592;45.904;8.978;2023-05-10T02:53:18;5.05;;;2.70;;
61685;SDS011;47592;45.904;8.978;2023-05-10T02:55:50;5.93;;;2.90;;
61685;SDS011;47592;45.904;8.978;2023-05-10T02:58:27;5.13;;;2.80;;
61685;SDS011;47592;45.904;8.978;2023-05-10T03:00:55;5.45;;;2.60;;
61685;SDS011;47592;45.904;8.978;2023-05-10T03:03:26;5.18;;;2.55;;
61685;SDS011;47592;45.904;8.978;2023-05-10T03:05:54;6.20;;;2.95;;
61685;SDS011;47592;45.904;8.978;2023-05-10T03:08:30;5.15;;;2.60;;
61685;SDS011;47592;45.904;8.978;2023-05-10T03:13:54;5.05;;;2.80;;
61685;SDS011;47592;45.904;8.978;2023-05-10T03:16:27;5.38;;;3.13;;
61685;SDS011;47592;45.904;8.978;2023-05-10T03:19:06;5.85;;;3.05;;
61685;SDS011;47592;45.904;8.978;2023-05-10T03:21:36;6.03;;;2.72;;
61685;SDS011;47592;45.904;8.978;2023-05-10T03:24:07;5.60;;;2.60;;
61685;SDS011;47592;45.904;8.978;2023-05-10T03:26:36;5.40;;;2.67;;
61685;SDS011;47592;45.904;8.978;2023-05-10T03:29:02;5.80;;;3.35;;
61685;SDS011;47592;45.904;8.978;2023-05-10T03:31:31;4.97;;;2.78;;
61685;SDS011;47592;45.904;8.978;2023-05-10T03:33:59;7.03;;;2.67;;
61685;SDS011;47592;45.904;8.978;2023-05-10T03:36:30;6.22;;;2.83;;
61685;SDS011;47592;45.904;8.978;2023-05-10T03:38:55;4.85;;;2.35;;
61685;SDS011;47592;45.904;8.978;2023-05-10T03:41:25;5.63;;;2.85;;
61685;SDS011;47592;45.904;8.978;2023-05-10T03:43:55;4.95;;;2.45;;
61685;SDS011;47592;45.904;8.978;2023-05-10T03:46:29;5.57;;;2.40;;
61685;SDS011;47592;45.904;8.978;2023-05-10T03:49:06;4.55;;;2.30;;
61685;SDS011;47592;45.904;8.978;2023-05-10T03:51:31;4.43;;;2.03;;
61685;SDS011;47592;45.904;8.978;2023-05-10T03:54:11;4.45;;;2.03;;
61685;SDS011;47592;45.904;8.978;2023-05-10T03:56:36;6.03;;;2.60;;
61685;SDS011;47592;45.904;8.978;2023-05-10T03:59:10;5.30;;;2.55;;
61685;SDS011;47592;45.904;8.978;2023-05-10T04:01:40;5.45;;;2.58;;
61685;SDS011;47592;45.904;8.978;2023-05-10T04:04:08;5.85;;;2.80;;
61685;SDS011;47592;45.904;8.978;2023-05-10T04:06:39;4.57;;;2.28;;
61685;SDS011;47592;45.904;8.978;2023-05-10T04:09:10;6.75;;;2.85;;
61685;SDS011;47592;45.904;8.978;2023-05-10T04:11:41;5.00;;;2.83;;
61685;SDS011;47592;45.904;8.978;2023-05-10T04:14:06;7.05;;;2.90;;
61685;SDS011;47592;45.904;8.978;2023-05-10T04:16:40;4.90;;;2.70;;
61685;SDS011;47592;45.904;8.978;2023-05-10T04:19:10;5.32;;;2.40;;
61685;SDS011;47592;45.904;8.978;2023-05-10T04:21:36;5.35;;;2.60;;
61685;SDS011;47592;45.904;8.978;2023-05-10T04:24:06;7.28;;;2.40;;
61685;SDS011;47592;45.904;8.978;2023-05-10T04:26:43;5.75;;;2.90;;
61685;SDS011;47592;45.904;8.978;2023-05-10T04:29:13;7.28;;;3.80;;
61685;SDS011;47592;45.904;8.978;2023-05-10T04:31:38;6.30;;;3.10;;
61685;SDS011;47592;45.904;8.978;2023-05-10T04:34:06;5.38;;;3.03;;
61685;SDS011;47592;45.904;8.978;2023-05-10T04:36:31;5.28;;;2.97;;
61685;SDS011;47592;45.904;8.978;2023-05-10T04:39:03;6.97;;;2.85;;
61685;SDS011;47592;45.904;8.978;2023-05-10T04:41:31;6.80;;;2.97;;
61685;SDS011;47592;45.904;8.978;2023-05-10T04:44:02;5.82;;;2.40;;
61685;SDS011;47592;45.904;8.978;2023-05-10T04:46:32;6.30;;;2.80;;
61685;SDS011;47592;45.904;8.978;2023-05-10T04:49:01;5.05;;;2.60;;
61685;SDS011;47592;45.904;8.978;2023-05-10T04:51:26;6.05;;;2.22;;
61685;SDS011;47592;45.904;8.978;2023-05-10T04:53:57;7.10;;;3.88;;
61685;SDS011;47592;45.904;8.978;2023-05-10T05:00:02;5.38;;;3.00;;
61685;SDS011;47592;45.904;8.978;2023-05-10T05:02:44;5.97;;;3.60;;
61685;SDS011;47592;45.904;8.978;2023-05-10T05:08:36;5.97;;;3.28;;
61685;SDS011;47592;45.904;8.978;2023-05-10T05:18:01;6.75;;;3.40;;
61685;SDS011;47592;45.904;8.978;2023-05-10T05:45:23;8.35;;;4.13;;
61685;SDS011;47592;45.904;8.978;2023-05-10T05:47:50;6.00;;;3.17;;
61685;SDS011;47592;45.904;8.978;2023-05-10T05:50:19;7.60;;;3.50;;
61685;SDS011;47592;45.904;8.978;2023-05-10T05:52:51;7.93;;;4.17;;
61685;SDS011;47592;45.904;8.978;2023-05-10T05:55:26;6.85;;;3.58;;
61685;SDS011;47592;45.904;8.978;2023-05-10T05:57:56;8.55;;;3.85;;
61685;SDS011;47592;45.904;8.978;2023-05-10T06:00:22;7.82;;;3.03;;
61685;SDS011;47592;45.904;8.978;2023-05-10T06:03:00;6.85;;;3.50;;
61685;SDS011;47592;45.904;8.978;2023-05-10T06:05:29;7.57;;;4.55;;
61685;SDS011;47592;45.904;8.978;2023-05-10T06:07:59;6.05;;;3.60;;
61685;SDS011;47592;45.904;8.978;2023-05-10T06:10:27;5.80;;;3.63;;
61685;SDS011;47592;45.904;8.978;2023-05-10T06:13:00;6.93;;;3.47;;
61685;SDS011;47592;45.904;8.978;2023-05-10T06:15:26;6.07;;;3.88;;
61685;SDS011;47592;45.904;8.978;2023-05-10T06:17:55;7.18;;;3.83;;
61685;SDS011;47592;45.904;8.978;2023-05-10T06:20:23;6.85;;;4.40;;
61685;SDS011;47592;45.904;8.978;2023-05-10T06:22:57;7.57;;;4.18;;
61685;SDS011;47592;45.904;8.978;2023-05-10T06:25:26;6.43;;;3.55;;
61685;SDS011;47592;45.904;8.978;2023-05-10T06:27:54;8.20;;;3.90;;
61685;SDS011;47592;45.904;8.978;2023-05-10T06:30:23;9.77;;;4.22;;
61685;SDS011;47592;45.904;8.978;2023-05-10T06:32:52;7.63;;;4.05;;
61685;SDS011;47592;45.904;8.978;2023-05-10T06:35:20;6.82;;;4.15;;
61685;SDS011;47592;45.904;8.978;2023-05-10T06:37:46;5.90;;;3.20;;
61685;SDS011;47592;45.904;8.978;2023-05-10T06:40:24;7.60;;;3.47;;
61685;SDS011;47592;45.904;8.978;2023-05-10T06:42:52;6.75;;;3.30;;
61685;SDS011;47592;45.904;8.978;2023-05-10T06:45:20;5.40;;;2.97;;
61685;SDS011;47592;45.904;8.978;2023-05-10T06:47:51;5.85;;;2.97;;
61685;SDS011;47592;45.904;8.978;2023-05-10T06:50:16;5.15;;;2.75;;
61685;SDS011;47592;45.904;8.978;2023-05-10T06:52:44;5.78;;;3.42;;
61685;SDS011;47592;45.904;8.978;2023-05-10T06:55:16;6.63;;;3.38;;
61685;SDS011;47592;45.904;8.978;2023-05-10T06:57:41;5.45;;;3.08;;
61685;SDS011;47592;45.904;8.978;2023-05-10T07:00:12;5.30;;;3.10;;
61685;SDS011;47592;45.904;8.978;2023-05-10T07:02:43;6.65;;;3.45;;
61685;SDS011;47592;45.904;8.978;2023-05-10T07:05:17;6.93;;;3.10;;
61685;SDS011;47592;45.904;8.978;2023-05-10T07:08:08;5.75;;;2.83;;
61685;SDS011;47592;45.904;8.978;2023-05-10T07:10:38;6.65;;;4.03;;
61685;SDS011;47592;45.904;8.978;2023-05-10T07:13:06;5.72;;;3.42;;
61685;SDS011;47592;45.904;8.978;2023-05-10T07:15:31;7.28;;;3.35;;
61685;SDS011;47592;45.904;8.978;2023-05-10T07:18:05;7.00;;;3.80;;
61685;SDS011;47592;45.904;8.978;2023-05-10T07:20:34;6.95;;;3.65;;
61685;SDS011;47592;45.904;8.978;2023-05-10T07:22:59;5.60;;;3.15;;
61685;SDS011;47592;45.904;8.978;2023-05-10T07:25:30;7.57;;;3.78;;
61685;SDS011;47592;45.904;8.978;2023-05-10T07:28:01;6.65;;;4.03;;
61685;SDS011;47592;45.904;8.978;2023-05-10T07:30:27;6.63;;;3.13;;
61685;SDS011;47592;45.904;8.978;2023-05-10T07:32:54;7.07;;;3.53;;
61685;SDS011;47592;45.904;8.978;2023-05-10T07:35:20;7.13;;;3.83;;
61685;SDS011;47592;45.904;8.978;2023-05-10T07:37:45;7.20;;;3.95;;
61685;SDS011;47592;45.904;8.978;2023-05-10T07:40:17;5.60;;;3.45;;
61685;SDS011;47592;45.904;8.978;2023-05-10T07:42:46;9.52;;;3.92;;
61685;SDS011;47592;45.904;8.978;2023-05-10T07:45:14;5.65;;;3.38;;
61685;SDS011;47592;45.904;8.978;2023-05-10T07:47:42;6.22;;;3.58;;
61685;SDS011;47592;45.904;8.978;2023-05-10T07:50:13;6.63;;;3.42;;
61685;SDS011;47592;45.904;8.978;2023-05-10T07:52:41;5.90;;;3.13;;
61685;SDS011;47592;45.904;8.978;2023-05-10T07:55:15;6.45;;;3.20;;
61685;SDS011;47592;45.904;8.978;2023-05-10T07:57:46;5.45;;;3.28;;
61685;SDS011;47592;45.904;8.978;2023-05-10T08:00:16;5.63;;;3.50;;
61685;SDS011;47592;45.904;8.978;2023-05-10T08:02:46;5.85;;;3.50;;
61685;SDS011;47592;45.904;8.978;2023-05-10T08:05:25;5.65;;;3.65;;
61685;SDS011;47592;45.904;8.978;2023-05-10T08:07:54;6.10;;;3.60;;
61685;SDS011;47592;45.904;8.978;2023-05-10T08:10:23;6.07;;;3.80;;
61685;SDS011;47592;45.904;8.978;2023-05-10T08:12:54;6.78;;;3.70;;
61685;SDS011;47592;45.904;8.978;2023-05-10T08:15:22;5.97;;;3.60;;
61685;SDS011;47592;45.904;8.978;2023-05-10T08:17:48;5.97;;;3.65;;
61685;SDS011;47592;45.904;8.978;2023-05-10T08:20:13;6.50;;;3.75;;
61685;SDS011;47592;45.904;8.978;2023-05-10T08:22:45;7.07;;;3.70;;
61685;SDS011;47592;45.904;8.978;2023-05-10T08:25:14;7.18;;;3.72;;
61685;SDS011;47592;45.904;8.978;2023-05-10T08:27:48;5.90;;;3.40;;
61685;SDS011;47592;45.904;8.978;2023-05-10T08:30:16;6.80;;;3.70;;
61685;SDS011;47592;45.904;8.978;2023-05-10T08:32:47;5.53;;;3.30;;
61685;SDS011;47592;45.904;8.978;2023-05-10T08:35:12;5.93;;;3.50;;
61685;SDS011;47592;45.904;8.978;2023-05-10T08:37:43;6.35;;;3.30;;
61685;SDS011;47592;45.904;8.978;2023-05-10T08:40:11;7.03;;;4.00;;
61685;SDS011;47592;45.904;8.978;2023-05-10T08:42:39;6.93;;;3.78;;
61685;SDS011;47592;45.904;8.978;2023-05-10T08:45:10;6.35;;;3.50;;
61685;SDS011;47592;45.904;8.978;2023-05-10T08:47:39;6.68;;;3.00;;
61685;SDS011;47592;45.904;8.978;2023-05-10T08:50:13;7.95;;;3.50;;
61685;SDS011;47592;45.904;8.978;2023-05-10T08:52:43;6.53;;;3.40;;
61685;SDS011;47592;45.904;8.978;2023-05-10T08:55:18;5.90;;;3.60;;
61685;SDS011;47592;45.904;8.978;2023-05-10T08:57:50;5.55;;;3.22;;
61685;SDS011;47592;45.904;8.978;2023-05-10T09:00:19;5.47;;;3.40;;
61685;SDS011;47592;45.904;8.978;2023-05-10T09:02:45;6.50;;;3.30;;
61685;SDS011;47592;45.904;8.978;2023-05-10T09:05:13;5.50;;;3.47;;
61685;SDS011;47592;45.904;8.978;2023-05-10T09:07:49;6.18;;;3.67;;
61685;SDS011;47592;45.904;8.978;2023-05-10T09:10:18;5.55;;;3.15;;
61685;SDS011;47592;45.904;8.978;2023-05-10T09:12:44;7.55;;;3.50;;
61685;SDS011;47592;45.904;8.978;2023-05-10T09:15:13;6.45;;;3.35;;
61685;SDS011;47592;45.904;8.978;2023-05-10T09:20:34;6.13;;;3.60;;
61685;SDS011;47592;45.904;8.978;2023-05-10T09:23:05;7.35;;;3.90;;
61685;SDS011;47592;45.904;8.978;2023-05-10T09:25:30;7.75;;;3.83;;
61685;SDS011;47592;45.904;8.978;2023-05-10T09:27:59;7.65;;;3.50;;
61685;SDS011;47592;45.904;8.978;2023-05-10T09:30:33;7.78;;;3.65;;
61685;SDS011;47592;45.904;8.978;2023-05-10T09:33:02;7.05;;;3.92;;
61685;SDS011;47592;45.904;8.978;2023-05-10T09:35:29;6.32;;;4.00;;
61685;SDS011;47592;45.904;8.978;2023-05-10T09:37:56;6.78;;;4.13;;
61685;SDS011;47592;45.904;8.978;2023-05-10T09:40:30;7.07;;;4.65;;
61685;SDS011;47592;45.904;8.978;2023-05-10T09:43:00;6.82;;;4.43;;
61685;SDS011;47592;45.904;8.978;2023-05-10T09:45:44;7.07;;;4.35;;
61685;SDS011;47592;45.904;8.978;2023-05-10T09:48:23;7.38;;;4.50;;
61685;SDS011;47592;45.904;8.978;2023-05-10T09:51:01;7.70;;;4.63;;
61685;SDS011;47592;45.904;8.978;2023-05-10T09:53:43;7.75;;;5.00;;
61685;SDS011;47592;45.904;8.978;2023-05-10T09:56:32;7.82;;;4.75;;
61685;SDS011;47592;45.904;8.978;2023-05-10T09:59:02;7.05;;;4.38;;
61685;SDS011;47592;45.904;8.978;2023-05-10T10:01:28;6.72;;;4.47;;
61685;SDS011;47592;45.904;8.978;2023-05-10T10:04:06;7.15;;;4.53;;
61685;SDS011;47592;45.904;8.978;2023-05-10T10:06:37;7.28;;;4.80;;
61685;SDS011;47592;45.904;8.978;2023-05-10T10:09:03;7.72;;;4.93;;
61685;SDS011;47592;45.904;8.978;2023-05-10T10:11:36;7.70;;;4.80;;
61685;SDS011;47592;45.904;8.978;2023-05-10T10:14:06;6.30;;;3.90;;
61685;SDS011;47592;45.904;8.978;2023-05-10T10:16:36;8.32;;;3.92;;
61685;SDS011;47592;45.904;8.978;2023-05-10T10:19:01;6.30;;;4.07;;
61685;SDS011;47592;45.904;8.978;2023-05-10T10:21:32;6.55;;;4.13;;
61685;SDS011;47592;45.904;8.978;2023-05-10T10:23:58;6.50;;;4.20;;
61685;SDS011;47592;45.904;8.978;2023-05-10T10:26:30;6.00;;;3.95;;
61685;SDS011;47592;45.904;8.978;2023-05-10T10:29:12;7.28;;;3.88;;
61685;SDS011;47592;45.904;8.978;2023-05-10T10:34:38;6.20;;;3.67;;
61685;SDS011;47592;45.904;8.978;2023-05-10T10:37:07;5.97;;;3.50;;
61685;SDS011;47592;45.904;8.978;2023-05-10T10:39:35;6.47;;;4.30;;
61685;SDS011;47592;45.904;8.978;2023-05-10T10:42:03;6.13;;;3.55;;
61685;SDS011;47592;45.904;8.978;2023-05-10T10:47:03;5.30;;;3.28;;
61685;SDS011;47592;45.904;8.978;2023-05-10T10:49:49;5.75;;;3.65;;
61685;SDS011;47592;45.904;8.978;2023-05-10T10:52:27;6.07;;;3.35;;
61685;SDS011;47592;45.904;8.978;2023-05-10T10:55:24;6.83;;;4.00;;
61685;SDS011;47592;45.904;8.978;2023-05-10T10:58:02;6.30;;;3.90;;
61685;SDS011;47592;45.904;8.978;2023-05-10T11:00:36;7.05;;;3.65;;
61685;SDS011;47592;45.904;8.978;2023-05-10T11:03:12;6.88;;;4.20;;
61685;SDS011;47592;45.904;8.978;2023-05-10T11:08:15;5.70;;;3.60;;
61685;SDS011;47592;45.904;8.978;2023-05-10T11:11:05;6.82;;;3.85;;
61685;SDS011;47592;45.904;8.978;2023-05-10T11:19:16;6.10;;;3.95;;
61685;SDS011;47592;45.904;8.978;2023-05-10T11:24:54;6.38;;;4.40;;
61685;SDS011;47592;45.904;8.978;2023-05-10T11:27:03;8.18;;;4.28;;
61685;SDS011;47592;45.904;8.978;2023-05-10T11:29:41;8.75;;;4.55;;
61685;SDS011;47592;45.904;8.978;2023-05-10T11:32:10;6.35;;;4.50;;
61685;SDS011;47592;45.904;8.978;2023-05-10T11:34:36;7.65;;;4.78;;
61685;SDS011;47592;45.904;8.978;2023-05-10T11:37:15;7.22;;;4.20;;
61685;SDS011;47592;45.904;8.978;2023-05-10T11:39:59;6.50;;;4.40;;
61685;SDS011;47592;45.904;8.978;2023-05-10T11:42:24;6.18;;;4.15;;
61685;SDS011;47592;45.904;8.978;2023-05-10T11:44:54;6.63;;;4.30;;
61685;SDS011;47592;45.904;8.978;2023-05-10T11:47:26;6.18;;;4.28;;
61685;SDS011;47592;45.904;8.978;2023-05-10T11:49:54;7.57;;;4.38;;
61685;SDS011;47592;45.904;8.978;2023-05-10T11:52:25;6.80;;;4.43;;
61685;SDS011;47592;45.904;8.978;2023-05-10T11:54:51;6.63;;;3.95;;
61685;SDS011;47592;45.904;8.978;2023-05-10T11:57:20;9.20;;;4.50;;
61685;SDS011;47592;45.904;8.978;2023-05-10T11:59:56;8.05;;;5.03;;
61685;SDS011;47592;45.904;8.978;2023-05-10T12:02:25;7.65;;;5.20;;
61685;SDS011;47592;45.904;8.978;2023-05-10T12:05:04;8.98;;;5.00;;
61685;SDS011;47592;45.904;8.978;2023-05-10T12:07:30;8.65;;;5.07;;
61685;SDS011;47592;45.904;8.978;2023-05-10T12:10:09;7.13;;;4.75;;
61685;SDS011;47592;45.904;8.978;2023-05-10T12:12:46;7.32;;;4.47;;
61685;SDS011;47592;45.904;8.978;2023-05-10T12:15:19;7.22;;;4.72;;
61685;SDS011;47592;45.904;8.978;2023-05-10T12:17:56;7.97;;;5.10;;
61685;SDS011;47592;45.904;8.978;2023-05-10T12:20:26;8.02;;;4.95;;
61685;SDS011;47592;45.904;8.978;2023-05-10T12:22:57;7.05;;;4.80;;
61685;SDS011;47592;45.904;8.978;2023-05-10T12:25:24;8.27;;;5.37;;
61685;SDS011;47592;45.904;8.978;2023-05-10T12:27:59;7.82;;;5.13;;
61685;SDS011;47592;45.904;8.978;2023-05-10T12:30:41;7.95;;;4.80;;
61685;SDS011;47592;45.904;8.978;2023-05-10T12:33:11;8.57;;;5.15;;
61685;SDS011;47592;45.904;8.978;2023-05-10T12:35:52;6.70;;;4.68;;
61685;SDS011;47592;45.904;8.978;2023-05-10T12:41:10;10.25;;;5.32;;
61685;SDS011;47592;45.904;8.978;2023-05-10T12:43:39;7.78;;;5.47;;
61685;SDS011;47592;45.904;8.978;2023-05-10T12:46:12;10.18;;;5.90;;
61685;SDS011;47592;45.904;8.978;2023-05-10T12:48:44;7.80;;;5.53;;
61685;SDS011;47592;45.904;8.978;2023-05-10T12:51:11;7.35;;;4.80;;
61685;SDS011;47592;45.904;8.978;2023-05-10T12:53:42;7.63;;;4.45;;
61685;SDS011;47592;45.904;8.978;2023-05-10T12:56:25;6.55;;;4.75;;
61685;SDS011;47592;45.904;8.978;2023-05-10T12:58:54;7.30;;;4.80;;
61685;SDS011;47592;45.904;8.978;2023-05-10T13:01:23;7.72;;;4.95;;
61685;SDS011;47592;45.904;8.978;2023-05-10T13:03:56;7.05;;;5.15;;
61685;SDS011;47592;45.904;8.978;2023-05-10T13:06:21;7.18;;;5.35;;
61685;SDS011;47592;45.904;8.978;2023-05-10T13:08:49;7.65;;;4.85;;
61685;SDS011;47592;45.904;8.978;2023-05-10T13:11:20;7.88;;;5.28;;
61685;SDS011;47592;45.904;8.978;2023-05-10T13:13:49;9.93;;;5.90;;
61685;SDS011;47592;45.904;8.978;2023-05-10T13:16:14;7.93;;;5.80;;
61685;SDS011;47592;45.904;8.978;2023-05-10T13:18:40;7.90;;;5.15;;
61685;SDS011;47592;45.904;8.978;2023-05-10T13:21:11;7.30;;;5.30;;
61685;SDS011;47592;45.904;8.978;2023-05-10T13:23:39;7.25;;;5.68;;
61685;SDS011;47592;45.904;8.978;2023-05-10T13:26:11;8.35;;;5.43;;
61685;SDS011;47592;45.904;8.978;2023-05-10T13:28:39;7.97;;;5.90;;
61685;SDS011;47592;45.904;8.978;2023-05-10T13:31:12;7.65;;;5.93;;
61685;SDS011;47592;45.904;8.978;2023-05-10T13:33:40;8.88;;;6.53;;
61685;SDS011;47592;45.904;8.978;2023-05-10T13:36:09;8.82;;;5.68;;
61685;SDS011;47592;45.904;8.978;2023-05-10T13:38:34;8.18;;;6.40;;
61685;SDS011;47592;45.904;8.978;2023-05-10T13:41:07;8.10;;;5.85;;
61685;SDS011;47592;45.904;8.978;2023-05-10T13:43:35;8.90;;;6.43;;
61685;SDS011;47592;45.904;8.978;2023-05-10T13:46:01;8.60;;;5.90;;
61685;SDS011;47592;45.904;8.978;2023-05-10T13:48:52;8.05;;;6.22;;
61685;SDS011;47592;45.904;8.978;2023-05-10T13:51:20;8.07;;;5.20;;
61685;SDS011;47592;45.904;8.978;2023-05-10T13:53:47;7.28;;;5.22;;
61685;SDS011;47592;45.904;8.978;2023-05-10T13:56:13;8.93;;;6.05;;
61685;SDS011;47592;45.904;8.978;2023-05-10T13:58:42;7.80;;;5.80;;
61685;SDS011;47592;45.904;8.978;2023-05-10T14:01:23;8.70;;;5.78;;
61685;SDS011;47592;45.904;8.978;2023-05-10T14:04:11;9.33;;;6.33;;
61685;SDS011;47592;45.904;8.978;2023-05-10T14:06:40;8.18;;;5.93;;
61685;SDS011;47592;45.904;8.978;2023-05-10T14:09:14;9.07;;;6.03;;
61685;SDS011;47592;45.904;8.978;2023-05-10T14:11:52;8.55;;;5.22;;
61685;SDS011;47592;45.904;8.978;2023-05-10T14:14:21;7.78;;;5.68;;
61685;SDS011;47592;45.904;8.978;2023-05-10T14:16:54;9.07;;;6.50;;
61685;SDS011;47592;45.904;8.978;2023-05-10T14:19:28;9.02;;;6.60;;
61685;SDS011;47592;45.904;8.978;2023-05-10T14:21:59;10.27;;;6.00;;
61685;SDS011;47592;45.904;8.978;2023-05-10T14:24:38;7.60;;;5.45;;
61685;SDS011;47592;45.904;8.978;2023-05-10T14:27:08;8.27;;;6.07;;
61685;SDS011;47592;45.904;8.978;2023-05-10T14:29:39;9.23;;;6.78;;
61685;SDS011;47592;45.904;8.978;2023-05-10T14:32:07;8.38;;;6.57;;
61685;SDS011;47592;45.904;8.978;2023-05-10T14:34:33;8.75;;;6.75;;
61685;SDS011;47592;45.904;8.978;2023-05-10T14:36:58;13.52;;;12.15;;
61685;SDS011;47592;45.904;8.978;2023-05-10T14:39:26;20.73;;;18.83;;
61685;SDS011;47592;45.904;8.978;2023-05-10T14:41:57;12.20;;;10.60;;
61685;SDS011;47592;45.904;8.978;2023-05-10T14:44:28;14.60;;;10.85;;
61685;SDS011;47592;45.904;8.978;2023-05-10T14:46:59;11.50;;;9.57;;
61685;SDS011;47592;45.904;8.978;2023-05-10T14:49:27;10.50;;;7.80;;
61685;SDS011;47592;45.904;8.978;2023-05-10T14:51:58;9.27;;;6.60;;
61685;SDS011;47592;45.904;8.978;2023-05-10T14:54:27;8.13;;;6.30;;
61685;SDS011;47592;45.904;8.978;2023-05-10T14:56:58;9.25;;;6.32;;
61685;SDS011;47592;45.904;8.978;2023-05-10T14:59:29;6.95;;;5.40;;
61685;SDS011;47592;45.904;8.978;2023-05-10T15:02:00;7.38;;;5.78;;
61685;SDS011;47592;45.904;8.978;2023-05-10T15:04:29;7.80;;;5.60;;
61685;SDS011;47592;45.904;8.978;2023-05-10T15:07:01;8.63;;;6.20;;
61685;SDS011;47592;45.904;8.978;2023-05-10T15:09:31;7.30;;;5.72;;
61685;SDS011;47592;45.904;8.978;2023-05-10T15:12:00;8.05;;;6.35;;
61685;SDS011;47592;45.904;8.978;2023-05-10T15:14:31;7.47;;;5.55;;
61685;SDS011;47592;45.904;8.978;2023-05-10T15:17:05;8.40;;;6.60;;
61685;SDS011;47592;45.904;8.978;2023-05-10T15:22:20;7.97;;;6.18;;
61685;SDS011;47592;45.904;8.978;2023-05-10T15:24:56;7.60;;;5.32;;
61685;SDS011;47592;45.904;8.978;2023-05-10T15:27:30;6.70;;;5.10;;
61685;SDS011;47592;45.904;8.978;2023-05-10T15:30:10;8.10;;;6.30;;
61685;SDS011;47592;45.904;8.978;2023-05-10T15:32:42;8.80;;;6.95;;
61685;SDS011;47592;45.904;8.978;2023-05-10T15:35:13;9.55;;;6.78;;
61685;SDS011;47592;45.904;8.978;2023-05-10T15:37:56;9.68;;;7.40;;
61685;SDS011;47592;45.904;8.978;2023-05-10T15:40:22;11.70;;;6.85;;
61685;SDS011;47592;45.904;8.978;2023-05-10T15:42:49;12.38;;;7.25;;
61685;SDS011;47592;45.904;8.978;2023-05-10T15:45:21;9.95;;;7.88;;
61685;SDS011;47592;45.904;8.978;2023-05-10T15:47:46;10.50;;;8.67;;
61685;SDS011;47592;45.904;8.978;2023-05-10T15:50:16;10.43;;;8.15;;
61685;SDS011;47592;45.904;8.978;2023-05-10T15:52:53;9.45;;;7.65;;
61685;SDS011;47592;45.904;8.978;2023-05-10T15:55:21;9.50;;;7.32;;
61685;SDS011;47592;45.904;8.978;2023-05-10T15:57:58;11.15;;;8.43;;
61685;SDS011;47592;45.904;8.978;2023-05-10T16:00:54;10.50;;;8.10;;
61685;SDS011;47592;45.904;8.978;2023-05-10T16:03:22;10.40;;;8.37;;
61685;SDS011;47592;45.904;8.978;2023-05-10T16:06:15;10.07;;;8.18;;
61685;SDS011;47592;45.904;8.978;2023-05-10T16:08:44;12.85;;;9.15;;
61685;SDS011;47592;45.904;8.978;2023-05-10T16:11:22;10.40;;;8.93;;
61685;SDS011;47592;45.904;8.978;2023-05-10T16:13:50;12.25;;;8.48;;
61685;SDS011;47592;45.904;8.978;2023-05-10T16:16:16;11.35;;;8.07;;
61685;SDS011;47592;45.904;8.978;2023-05-10T16:18:42;10.85;;;8.40;;
61685;SDS011;47592;45.904;8.978;2023-05-10T16:21:08;11.73;;;8.77;;
61685;SDS011;47592;45.904;8.978;2023-05-10T16:23:36;9.77;;;7.75;;